Time;durP1;ratioP1;P1;durP2;ratioP2;P2;SDS_P1;SDS_P2;PMS_P1;PMS_P2;Temp;Humidity;BMP_temperature;BMP_pressure;BME280_temperature;BME280_humidity;BME280_pressure;Samples;Min_cycle;Max_cycle;Signal;HPM_P1;HPM_P2
2022/11/15 00:00:34;;;;;;;32.60;18.60;;;;;;;5.57;94.91;101884.29;105419;1269;70217;-78
2022/11/15 00:03:25;;;;;;;35.50;20.30;;;;;;;5.59;94.59;101883.51;105566;1272;73978;-76
2022/11/15 00:06:13;;;;;;;33.50;21.00;;;;;;;5.54;94.88;101884.36;105422;1272;63645;-74
2022/11/15 00:09:01;;;;;;;35.40;20.90;;;;;;;5.51;95.09;101876.53;105329;1274;60660;-75
2022/11/15 00:11:48;;;;;;;34.40;21.00;;;;;;;5.55;94.98;101873.11;105445;1272;63801;-76
2022/11/15 00:14:36;;;;;;;33.60;19.90;;;;;;;5.55;94.74;101868.95;105568;1263;72342;-76
2022/11/15 00:17:23;;;;;;;35.00;20.20;;;;;;;5.56;94.61;101872.38;105296;1275;69017;-77
2022/11/15 00:20:11;;;;;;;41.60;21.70;;;;;;;5.51;94.89;101867.54;105175;1278;73307;-74
2022/11/15 00:22:58;;;;;;;34.40;21.60;;;;;;;5.50;95.39;101860.66;105353;1277;63211;-74
2022/11/15 00:25:46;;;;;;;34.10;21.70;;;;;;;5.48;95.52;101856.24;105326;1263;60577;-75
2022/11/15 00:28:33;;;;;;;33.00;20.10;;;;;;;5.51;95.36;101850.60;105348;1269;63421;-74
2022/11/15 00:31:20;;;;;;;37.80;19.80;;;;;;;5.48;95.38;101846.20;105349;1269;71262;-73
2022/11/15 00:34:10;;;;;;;37.60;20.50;;;;;;;5.47;95.38;101842.42;105309;1277;58817;-73
2022/11/15 00:36:58;;;;;;;34.30;20.60;;;;;;;5.52;95.09;101840.89;105482;1268;73134;-76
2022/11/15 00:39:44;;;;;;;34.40;20.20;;;;;;;5.50;95.60;101834.04;105570;1272;63013;-77
2022/11/15 00:42:31;;;;;;;35.30;20.80;;;;;;;5.53;95.24;101832.41;105600;1267;61086;-77
2022/11/15 00:45:19;;;;;;;35.30;20.10;;;;;;;5.50;95.36;101828.70;105637;1269;63237;-77
2022/11/15 00:48:07;;;;;;;35.00;19.70;;;;;;;5.51;95.27;101826.56;105495;1273;62304;-74
2022/11/15 00:50:54;;;;;;;36.30;20.90;;;;;;;5.54;94.90;101820.27;105395;1269;70509;-74
2022/11/15 00:53:42;;;;;;;40.10;21.50;;;;;;;5.50;95.25;101815.91;105435;1273;62838;-74
2022/11/15 00:56:29;;;;;;;37.80;22.00;;;;;;;5.51;95.44;101813.81;105417;1264;59145;-74
2022/11/15 00:59:16;;;;;;;36.20;21.20;;;;;;;5.50;95.29;101808.12;105447;1268;59142;-75
2022/11/15 01:02:04;;;;;;;36.90;21.40;;;;;;;5.44;95.60;101805.23;105412;1270;73536;-75
2022/11/15 01:04:51;;;;;;;36.20;21.20;;;;;;;5.40;95.79;101800.20;105655;1268;61902;-78
2022/11/15 01:07:38;;;;;;;38.30;21.80;;;;;;;5.42;96.01;101799.59;105531;1269;70263;-75
2022/11/15 01:10:26;;;;;;;34.90;21.20;;;;;;;5.43;96.00;101799.91;105239;1272;63108;-76
2022/11/15 01:13:13;;;;;;;41.40;23.30;;;;;;;5.41;96.28;101798.59;105282;1277;62807;-74
2022/11/15 01:16:11;;;;;;;42.00;21.80;;;;;;;5.41;96.21;101790.98;105320;1268;60660;-74
2022/11/15 01:18:59;;;;;;;32.10;19.30;;;;;;;5.38;96.26;101785.20;105311;1263;73953;-75
2022/11/15 01:21:50;;;;;;;33.70;20.70;;;;;;;5.41;96.11;101785.98;105344;1263;71073;-73
2022/11/15 01:24:37;;;;;;;39.30;21.40;;;;;;;5.38;96.05;101781.25;105328;1269;59936;-75
2022/11/15 01:27:24;;;;;;;37.30;21.90;;;;;;;5.40;96.51;101783.24;105427;1277;62462;-74
2022/11/15 01:30:12;;;;;;;35.00;21.50;;;;;;;5.39;96.57;101779.84;105408;1270;59042;-74
2022/11/15 01:32:59;;;;;;;34.00;20.60;;;;;;;5.43;96.42;101781.23;105432;1277;59164;-75
2022/11/15 01:35:46;;;;;;;36.10;20.70;;;;;;;5.41;97.02;101775.94;105339;1266;73890;-74
2022/11/15 01:38:34;;;;;;;35.40;20.80;;;;;;;5.43;96.55;101777.27;105451;1268;61094;-74
2022/11/15 01:41:25;;;;;;;32.90;19.50;;;;;;;5.45;96.54;101774.97;105477;1263;70421;-75
2022/11/15 01:44:37;;;;;;;37.30;21.10;;;;;;;5.47;96.72;101773.34;105413;1278;74196;-74
2022/11/15 01:47:36;;;;;;;35.80;21.00;;;;;;;5.51;96.54;101770.09;105458;1268;60143;-74
2022/11/15 01:50:32;;;;;;;34.60;20.20;;;;;;;5.48;96.46;101764.99;105490;1263;61265;-76
2022/11/15 01:53:23;;;;;;;36.60;19.20;;;;;;;5.48;96.67;101766.76;105532;1275;63639;-73
2022/11/15 01:56:16;;;;;;;35.70;20.40;;;;;;;5.51;96.55;101756.80;105463;1269;60618;-73
2022/11/15 01:59:08;;;;;;;32.10;18.90;;;;;;;5.54;96.65;101757.71;105483;1276;70448;-75
2022/11/15 02:01:55;;;;;;;36.70;19.50;;;;;;;5.52;96.37;101752.94;105470;1268;62333;-74
2022/11/15 02:04:46;;;;;;;35.70;19.50;;;;;;;5.55;96.23;101750.95;105443;1277;58089;-74
2022/11/15 02:07:35;;;;;;;36.50;19.80;;;;;;;5.54;96.72;101750.45;105376;1269;61111;-74
2022/11/15 02:10:24;;;;;;;35.10;20.40;;;;;;;5.56;96.52;101752.77;105470;1275;73886;-75
2022/11/15 02:13:11;;;;;;;32.90;19.40;;;;;;;5.58;96.24;101743.76;105355;1266;71804;-75
2022/11/15 02:16:25;;;;;;;37.30;20.20;;;;;;;5.58;96.25;101742.02;105400;1267;70004;-73
2022/11/15 02:19:21;;;;;;;33.50;19.90;;;;;;;5.55;96.73;101737.66;105382;1270;74841;-74
2022/11/15 02:22:38;;;;;;;38.50;20.50;;;;;;;5.57;96.53;101737.92;105257;1273;62278;-75
2022/11/15 02:26:04;;;;;;;32.30;19.60;;;;;;;5.58;96.54;101735.11;105524;1269;61797;-76
2022/11/15 02:29:10;;;;;;;36.60;20.40;;;;;;;5.58;96.83;101735.45;105395;1267;73728;-73
2022/11/15 02:32:10;;;;;;;36.00;20.30;;;;;;;5.59;96.64;101732.80;105463;1277;61929;-75
2022/11/15 02:35:03;;;;;;;40.00;21.60;;;;;;;5.59;96.66;101728.16;105558;1273;59197;-78
2022/11/15 02:38:31;;;;;;;39.40;20.20;;;;;;;5.63;97.26;101725.80;105598;1269;62580;-76
2022/11/15 02:41:57;;;;;;;40.90;20.30;;;;;;;5.62;96.70;101725.80;105702;1278;57680;-76
2022/11/15 02:44:46;;;;;;;35.70;18.90;;;;;;;5.66;96.26;101720.48;105623;1273;58940;-77
2022/11/15 02:47:43;;;;;;;37.80;21.00;;;;;;;5.69;96.13;101716.76;105543;1273;72793;-77
2022/11/15 02:50:32;;;;;;;39.30;20.90;;;;;;;5.64;96.56;101711.06;105526;1269;71178;-76
2022/11/15 02:53:25;;;;;;;33.90;19.80;;;;;;;5.68;96.19;101704.36;105553;1272;70408;-77
2022/11/15 02:56:12;;;;;;;38.40;21.50;;;;;;;5.66;96.34;101703.39;105534;1273;63053;-78
2022/11/15 02:59:40;;;;;;;36.60;20.10;;;;;;;5.69;96.22;101702.77;105495;1264;58941;-78
2022/11/15 03:03:05;;;;;;;35.50;20.20;;;;;;;5.70;96.11;101702.88;105450;1268;59213;-79
2022/11/15 03:06:29;;;;;;;36.10;21.20;;;;;;;5.70;96.42;101702.00;105467;1269;64126;-75
2022/11/15 03:09:47;;;;;;;37.80;19.90;;;;;;;5.76;96.12;101701.61;105468;1269;71427;-76
2022/11/15 03:13:00;;;;;;;38.90;19.90;;;;;;;5.77;95.84;101695.52;105313;1269;70074;-75
2022/11/15 03:16:11;;;;;;;41.50;21.20;;;;;;;5.77;96.15;101690.34;105423;1272;71628;-76
2022/11/15 03:19:16;;;;;;;39.00;21.50;;;;;;;5.76;96.43;101688.16;105436;1269;62232;-76
2022/11/15 03:22:08;;;;;;;39.20;22.00;;;;;;;5.77;95.79;101691.02;105426;1268;61390;-76
2022/11/15 03:25:04;;;;;;;39.10;21.20;;;;;;;5.79;95.39;101688.03;105459;1272;61862;-77
2022/11/15 03:27:56;;;;;;;33.70;20.00;;;;;;;5.82;95.48;101683.05;105468;1268;61483;-74
2022/11/15 03:30:48;;;;;;;41.10;21.50;;;;;;;5.85;95.24;101679.70;105424;1272;70590;-77
2022/11/15 03:33:35;;;;;;;33.50;19.60;;;;;;;5.85;95.99;101678.81;105719;1273;63122;-76
2022/11/15 03:36:24;;;;;;;36.90;21.10;;;;;;;5.86;95.26;101673.76;105518;1272;61083;-76
2022/11/15 03:39:14;;;;;;;37.40;20.60;;;;;;;5.89;95.03;101672.09;105483;1270;59356;-76
2022/11/15 03:42:38;;;;;;;42.90;21.60;;;;;;;5.87;95.32;101671.34;105366;1271;72392;-77
2022/11/15 03:45:39;;;;;;;39.90;21.80;;;;;;;5.88;95.34;101670.42;105362;1269;73112;-75
2022/11/15 03:48:40;;;;;;;41.40;22.40;;;;;;;5.90;95.30;101670.19;105355;1268;60485;-75
2022/11/15 03:51:30;;;;;;;41.80;20.80;;;;;;;5.92;95.44;101669.94;105632;1274;73060;-77
2022/11/15 03:54:17;;;;;;;37.40;21.20;;;;;;;5.89;95.39;101662.61;105673;1274;57633;-76
2022/11/15 03:57:04;;;;;;;40.00;22.10;;;;;;;5.92;95.11;101658.70;105874;1275;60861;-77
2022/11/15 03:59:52;;;;;;;40.40;21.60;;;;;;;5.91;95.18;101656.84;105602;1274;62527;-77
2022/11/15 04:02:40;;;;;;;44.00;22.50;;;;;;;5.91;95.38;101652.34;105338;1280;72506;-77
2022/11/15 04:05:27;;;;;;;37.20;21.00;;;;;;;5.89;95.45;101648.25;105324;1278;60351;-74
2022/11/15 04:08:14;;;;;;;40.10;22.10;;;;;;;5.89;95.34;101643.41;105302;1275;73723;-71
2022/11/15 04:11:02;;;;;;;34.30;20.50;;;;;;;5.91;94.96;101640.75;105391;1277;61162;-74
2022/11/15 04:13:49;;;;;;;34.90;21.10;;;;;;;5.91;94.72;101635.42;105683;1269;62401;-77
2022/11/15 04:16:37;;;;;;;39.60;20.90;;;;;;;5.97;94.63;101636.22;105540;1270;72064;-77
2022/11/15 04:25:43;;;;;;;36.50;20.90;;;;;;;5.99;94.12;101639.06;105675;1265;71862;-76
2022/11/15 04:28:31;;;;;;;36.50;20.50;;;;;;;6.00;94.19;101639.73;105526;1269;62354;-76
2022/11/15 04:31:19;;;;;;;39.00;20.10;;;;;;;5.98;94.45;101639.11;106011;1272;62044;-76
2022/11/15 04:34:06;;;;;;;44.20;22.20;;;;;;;6.00;94.27;101636.09;105752;1278;62554;-78
2022/11/15 04:37:11;;;;;;;38.40;21.30;;;;;;;5.99;94.47;101632.31;105618;1269;72041;-75
2022/11/15 04:39:59;;;;;;;45.20;23.10;;;;;;;6.04;94.36;101631.98;105426;1265;68968;-75
2022/11/15 04:42:46;;;;;;;46.20;22.90;;;;;;;6.09;94.15;101631.61;105544;1272;63300;-77
2022/11/15 04:45:33;;;;;;;39.30;21.50;;;;;;;6.10;93.84;101633.45;105575;1278;62906;-75
2022/11/15 04:48:21;;;;;;;41.00;20.90;;;;;;;6.09;93.81;101632.95;105385;1273;58270;-76
2022/11/15 04:51:08;;;;;;;38.60;21.30;;;;;;;6.13;93.90;101634.36;105414;1277;73471;-75
2022/11/15 04:53:56;;;;;;;40.10;21.60;;;;;;;6.12;93.09;101633.02;105345;1274;70614;-74
2022/11/15 04:56:43;;;;;;;40.90;20.50;;;;;;;6.12;92.82;101632.15;105819;1269;60384;-76
2022/11/15 04:59:30;;;;;;;34.70;19.40;;;;;;;6.10;92.75;101627.74;105775;1268;73816;-77
2022/11/15 05:02:18;;;;;;;43.40;21.00;;;;;;;6.13;92.08;101630.23;106422;1273;58270;-78
2022/11/15 05:05:06;;;;;;;37.00;19.20;;;;;;;6.14;91.69;101627.44;106591;1273;58977;-77
2022/11/15 05:07:53;;;;;;;36.10;20.20;;;;;;;6.16;91.40;101624.59;106530;1275;70741;-78
2022/11/15 05:10:41;;;;;;;39.90;19.30;;;;;;;6.20;91.44;101622.15;106204;1277;60877;-76
2022/11/15 05:13:29;;;;;;;39.00;19.20;;;;;;;6.23;90.94;101615.31;105792;1271;69800;-79
2022/11/15 05:16:17;;;;;;;31.90;18.30;;;;;;;6.27;91.05;101616.71;106266;1270;62398;-79
2022/11/15 05:19:09;;;;;;;40.10;20.10;;;;;;;6.27;89.54;101614.65;105969;1273;58260;-75
2022/11/15 05:21:57;;;;;;;39.80;19.90;;;;;;;6.26;89.76;101613.63;105578;1268;60397;-76
2022/11/15 05:24:44;;;;;;;37.10;20.10;;;;;;;6.25;89.66;101612.46;105495;1273;62825;-75
2022/11/15 05:27:34;;;;;;;46.90;21.60;;;;;;;6.28;89.61;101612.36;105455;1269;71702;-76
2022/11/15 05:30:21;;;;;;;38.70;21.60;;;;;;;6.31;89.47;101611.00;105423;1267;59884;-75
2022/11/15 05:33:09;;;;;;;43.60;22.40;;;;;;;6.35;89.62;101607.56;105591;1278;73887;-75
2022/11/15 05:36:15;;;;;;;36.50;21.80;;;;;;;6.34;89.27;101610.38;105420;1267;62220;-75
2022/11/15 05:39:05;;;;;;;40.30;21.00;;;;;;;6.37;88.54;101607.11;105696;1269;60205;-76
2022/11/15 05:42:08;;;;;;;33.50;18.70;;;;;;;6.39;88.17;101606.71;105592;1270;63520;-77
2022/11/15 05:44:58;;;;;;;40.70;19.60;;;;;;;6.45;88.25;101604.21;105515;1264;61737;-75
2022/11/15 05:47:46;;;;;;;37.50;19.50;;;;;;;6.48;87.97;101604.45;105403;1274;59253;-75
2022/11/15 05:50:38;;;;;;;28.50;17.70;;;;;;;6.52;87.80;101599.08;105345;1270;62576;-77
2022/11/15 05:53:26;;;;;;;29.60;17.20;;;;;;;6.53;86.57;101603.03;105417;1278;59033;-77
2022/11/15 05:56:14;;;;;;;40.40;22.00;;;;;;;6.58;85.95;101600.39;105423;1278;58761;-75
2022/11/15 05:59:02;;;;;;;30.30;16.70;;;;;;;6.61;85.32;101603.73;105405;1274;73010;-76
2022/11/15 06:01:51;;;;;;;32.00;16.50;;;;;;;6.68;84.76;101603.95;105410;1277;72362;-78
2022/11/15 06:04:38;;;;;;;34.50;16.90;;;;;;;6.73;84.28;101606.50;105489;1266;61068;-78
2022/11/15 06:07:26;;;;;;;28.30;15.70;;;;;;;6.78;82.92;101603.17;105403;1269;73548;-78
2022/11/15 06:10:14;;;;;;;22.30;15.20;;;;;;;6.79;82.40;101601.92;105484;1277;57989;-77
2022/11/15 06:13:04;;;;;;;25.80;15.50;;;;;;;6.86;82.25;101596.77;105343;1273;59130;-76
2022/11/15 06:15:56;;;;;;;25.70;14.50;;;;;;;6.88;81.70;101594.30;105379;1272;71380;-78
2022/11/15 06:18:44;;;;;;;26.00;15.30;;;;;;;6.88;80.52;101600.34;105450;1269;63018;-77
2022/11/15 06:21:31;;;;;;;25.40;13.70;;;;;;;6.87;79.83;101598.31;105526;1276;68958;-77
2022/11/15 06:24:19;;;;;;;23.20;13.20;;;;;;;6.88;79.62;101597.91;105549;1269;62533;-78
2022/11/15 06:27:07;;;;;;;23.60;15.60;;;;;;;6.95;80.35;101599.54;105494;1271;60370;-76
2022/11/15 06:29:55;;;;;;;23.00;13.20;;;;;;;6.94;79.17;101598.35;105535;1269;59204;-77
2022/11/15 06:32:42;;;;;;;22.90;13.10;;;;;;;6.94;78.60;101596.96;105646;1274;73508;-77
2022/11/15 06:35:35;;;;;;;25.70;13.30;;;;;;;7.05;78.66;101598.55;105437;1280;71893;-79
2022/11/15 06:38:22;;;;;;;20.30;13.50;;;;;;;7.04;78.02;101596.53;105273;1272;70266;-79
2022/11/15 06:41:12;;;;;;;21.90;13.30;;;;;;;7.12;78.07;101596.52;105392;1269;62964;-77
2022/11/15 06:44:00;;;;;;;22.70;13.30;;;;;;;7.21;77.35;101594.92;105451;1278;63375;-77
2022/11/15 06:46:49;;;;;;;17.90;11.70;;;;;;;7.20;77.15;101596.70;105505;1273;60076;-77
2022/11/15 06:49:37;;;;;;;17.50;10.80;;;;;;;7.22;76.76;101595.05;105466;1269;71196;-77
2022/11/15 06:52:24;;;;;;;19.20;11.70;;;;;;;7.34;76.85;101592.27;105543;1272;61969;-76
2022/11/15 06:55:12;;;;;;;23.70;14.00;;;;;;;7.31;76.61;101585.95;105509;1270;69432;-77
2022/11/15 06:58:00;;;;;;;22.40;12.50;;;;;;;7.34;76.84;101587.75;105521;1267;74364;-77
2022/11/15 07:00:47;;;;;;;19.70;12.90;;;;;;;7.37;76.60;101586.20;105592;1280;58833;-77
2022/11/15 07:03:38;;;;;;;19.80;11.90;;;;;;;7.58;76.83;101582.70;105508;1276;58825;-79
2022/11/15 07:06:25;;;;;;;17.60;11.20;;;;;;;7.51;75.02;101580.58;105552;1268;62925;-76
2022/11/15 07:09:13;;;;;;;19.50;11.10;;;;;;;7.51;75.05;101581.95;105523;1272;71904;-77
2022/11/15 07:12:00;;;;;;;16.20;10.70;;;;;;;7.56;74.47;101576.85;105500;1269;60619;-79
2022/11/15 07:14:54;;;;;;;18.50;11.40;;;;;;;7.52;74.57;101578.62;105406;1268;72991;-77
2022/11/15 07:17:41;;;;;;;17.80;10.90;;;;;;;7.51;74.19;101574.70;105751;1267;59016;-79
2022/11/15 07:20:29;;;;;;;19.80;11.60;;;;;;;7.63;74.16;101573.76;105714;1273;60457;-79
2022/11/15 07:23:16;;;;;;;16.70;10.60;;;;;;;7.66;73.55;101569.82;105576;1276;63087;-79
2022/11/15 07:26:06;;;;;;;13.40;9.80;;;;;;;7.74;73.21;101565.48;105875;1278;63157;-78
2022/11/15 07:28:54;;;;;;;17.60;11.20;;;;;;;7.75;73.63;101560.05;105520;1270;71485;-78
2022/11/15 07:31:41;;;;;;;14.90;9.10;;;;;;;7.85;73.51;101554.52;105712;1279;73779;-77
2022/11/15 07:34:29;;;;;;;16.40;9.90;;;;;;;7.91;72.82;101550.77;105757;1273;57518;-78
2022/11/15 07:37:16;;;;;;;12.80;9.10;;;;;;;7.99;72.43;101548.29;105522;1279;62287;-77
2022/11/15 07:40:05;;;;;;;16.50;10.60;;;;;;;7.90;71.84;101543.18;105372;1274;71466;-77
2022/11/15 07:43:02;;;;;;;17.10;10.10;;;;;;;7.97;71.93;101539.20;105467;1281;71965;-77
2022/11/15 07:45:49;;;;;;;13.00;9.20;;;;;;;8.06;72.05;101534.61;105985;1269;60398;-79
2022/11/15 07:48:45;;;;;;;13.80;9.10;;;;;;;8.01;70.78;101529.31;105764;1274;74960;-81
2022/11/15 07:51:33;;;;;;;15.70;9.50;;;;;;;7.95;71.21;101532.71;105873;1273;62436;-76
2022/11/15 07:54:20;;;;;;;14.30;9.00;;;;;;;8.09;71.42;101532.23;105698;1273;59076;-80
2022/11/15 07:57:09;;;;;;;13.10;9.00;;;;;;;8.21;70.81;101529.72;105484;1277;73492;-79
2022/11/15 07:59:58;;;;;;;12.30;7.50;;;;;;;8.12;70.50;101526.35;105607;1272;72582;-78
2022/11/15 08:02:45;;;;;;;13.50;8.10;;;;;;;8.11;71.03;101532.13;105292;1272;59157;-77
2022/11/15 08:05:36;;;;;;;15.80;8.90;;;;;;;8.22;70.85;101527.42;105146;1266;63335;-78
2022/11/15 08:08:23;;;;;;;12.50;8.80;;;;;;;8.18;70.75;101528.14;105127;1280;62093;-79
2022/11/15 08:11:11;;;;;;;13.50;8.00;;;;;;;8.35;71.03;101521.06;105073;1269;62005;-79
2022/11/15 08:13:59;;;;;;;13.10;8.40;;;;;;;8.27;70.55;101521.27;105233;1274;73312;-81
2022/11/15 08:16:47;;;;;;;16.70;8.40;;;;;;;8.26;70.75;101518.88;105217;1282;73619;-78
2022/11/15 08:19:34;;;;;;;13.20;8.30;;;;;;;8.27;70.31;101519.19;105240;1274;70914;-75
2022/11/15 08:22:22;;;;;;;8.90;6.10;;;;;;;8.34;71.00;101520.23;105356;1267;62571;-76
2022/11/15 08:25:10;;;;;;;14.30;7.10;;;;;;;8.61;69.72;101522.18;105837;1269;63084;-79
2022/11/15 08:28:01;;;;;;;15.10;7.50;;;;;;;8.62;69.98;101521.09;105594;1269;60224;-76
2022/11/15 08:30:50;;;;;;;13.90;7.70;;;;;;;8.54;70.17;101524.09;105428;1271;70828;-76
2022/11/15 08:33:37;;;;;;;10.90;7.00;;;;;;;8.55;70.61;101518.52;105479;1277;60819;-76
2022/11/15 08:36:26;;;;;;;11.30;6.50;;;;;;;8.58;71.13;101513.17;105485;1269;58976;-76
2022/11/15 08:39:24;;;;;;;11.50;6.80;;;;;;;8.72;70.70;101509.81;105317;1270;73067;-77
2022/11/15 08:42:11;;;;;;;15.00;7.50;;;;;;;8.74;70.74;101502.91;105507;1271;59027;-79
2022/11/15 08:45:07;;;;;;;13.10;8.10;;;;;;;8.58;71.15;101497.84;105556;1273;61097;-79
2022/11/15 08:47:55;;;;;;;11.10;6.80;;;;;;;8.67;70.87;101488.18;105624;1273;62675;-81
2022/11/15 08:50:43;;;;;;;10.00;7.00;;;;;;;8.78;71.00;101480.80;105557;1270;71727;-75
2022/11/15 08:53:31;;;;;;;13.60;7.20;;;;;;;8.53;71.48;101475.19;105555;1269;70092;-77
2022/11/15 08:56:18;;;;;;;9.60;5.60;;;;;;;8.63;71.30;101474.48;105555;1278;62102;-78
2022/11/15 08:59:06;;;;;;;12.30;7.20;;;;;;;8.56;71.32;101473.30;105863;1270;59049;-75
2022/11/15 09:01:53;;;;;;;16.70;8.20;;;;;;;8.71;71.03;101467.50;105708;1268;59112;-77
2022/11/15 09:04:43;;;;;;;12.90;8.10;;;;;;;8.70;71.20;101466.34;105536;1270;64298;-79
2022/11/15 09:07:31;;;;;;;11.70;7.30;;;;;;;8.75;71.24;101462.40;105471;1273;71144;-76
2022/11/15 09:10:22;;;;;;;13.20;7.00;;;;;;;8.70;71.28;101460.23;105792;1268;69997;-77
2022/11/15 09:13:10;;;;;;;14.10;7.20;;;;;;;8.73;71.16;101456.43;105467;1270;62917;-79
2022/11/15 09:16:00;;;;;;;13.50;7.30;;;;;;;8.92;70.49;101448.29;105625;1271;59090;-76
2022/11/15 09:18:48;;;;;;;11.50;6.30;;;;;;;8.78;70.92;101444.00;105303;1275;449093;-77
2022/11/15 09:21:35;;;;;;;10.20;6.80;;;;;;;8.84;71.32;101442.67;105813;1277;73265;-78
2022/11/15 09:24:23;;;;;;;12.00;7.70;;;;;;;8.99;71.01;101436.45;105863;1269;61470;-78
2022/11/15 09:27:11;;;;;;;10.90;6.90;;;;;;;9.14;70.95;101431.33;105631;1270;70437;-78
2022/11/15 09:30:01;;;;;;;11.80;7.40;;;;;;;9.25;70.41;101429.64;105750;1273;63625;-77
2022/11/15 09:32:49;;;;;;;11.70;7.40;;;;;;;9.32;69.81;101427.88;105596;1273;59086;-77
2022/11/15 09:35:37;;;;;;;14.50;7.40;;;;;;;9.17;70.30;101422.78;105687;1269;60974;-77
2022/11/15 09:38:24;;;;;;;11.70;6.00;;;;;;;9.36;69.85;101420.36;105371;1277;63129;-76
2022/11/15 09:41:17;;;;;;;13.50;7.00;;;;;;;9.40;69.54;101410.57;105454;1274;71290;-80
2022/11/15 09:44:33;;;;;;;9.00;5.30;;;;;;;9.45;69.53;101405.23;105405;1277;59096;-78
2022/11/15 09:47:44;;;;;;;12.20;6.70;;;;;;;9.52;69.25;101402.38;105470;1274;72064;-79
2022/11/15 09:51:04;;;;;;;12.20;8.90;;;;;;;9.49;69.84;101398.73;105490;1274;62061;-79
2022/11/15 09:53:51;;;;;;;13.30;7.20;;;;;;;9.57;69.27;101393.77;105429;1270;58691;-78
2022/11/15 09:56:44;;;;;;;9.10;6.10;;;;;;;9.54;69.18;101388.37;105386;1280;62843;-78
2022/11/15 09:59:35;;;;;;;12.30;6.50;;;;;;;9.63;69.08;101384.56;105389;1278;61601;-78
2022/11/15 10:02:19;;;;;;;10.10;6.20;;;;;;;9.40;69.00;101376.64;105361;1271;59300;-78
2022/11/15 10:04:49;;;;;;;10.20;5.80;;;;;;;9.38;69.06;101369.98;105471;1268;73813;-80
2022/11/15 10:07:29;;;;;;;10.40;6.60;;;;;;;9.39;69.27;101367.15;105395;1269;59104;-78
2022/11/15 10:10:34;;;;;;;13.30;7.40;;;;;;;9.42;69.34;101363.48;105458;1276;59123;-78
2022/11/15 10:13:04;;;;;;;12.00;6.60;;;;;;;9.47;69.10;101352.42;105277;1275;63566;-79
2022/11/15 10:15:34;;;;;;;10.10;6.50;;;;;;;9.34;69.63;101347.30;105539;1265;71882;-77
2022/11/15 10:18:39;;;;;;;11.60;6.80;;;;;;;9.35;70.11;101345.15;105584;1273;61371;-79
2022/11/15 10:21:20;;;;;;;12.20;6.80;;;;;;;9.33;70.25;101341.23;105567;1281;72772;-77
2022/11/15 10:23:52;;;;;;;13.50;6.50;;;;;;;9.40;69.87;101337.17;105542;1274;59171;-77
2022/11/15 10:26:24;;;;;;;17.00;8.00;;;;;;;9.40;69.90;101338.37;105467;1278;60515;-80
2022/11/15 10:28:53;;;;;;;13.40;6.90;;;;;;;9.47;69.38;101337.33;105283;1267;72701;-78
2022/11/15 10:31:28;;;;;;;11.40;7.20;;;;;;;9.46;69.42;101337.23;105206;1271;72667;-77
2022/11/15 10:34:18;;;;;;;12.20;7.00;;;;;;;9.48;69.40;101333.95;105367;1269;59714;-76
2022/11/15 10:37:08;;;;;;;12.10;7.00;;;;;;;9.33;70.06;101329.27;105192;1276;63285;-76
2022/11/15 10:39:37;;;;;;;10.40;6.50;;;;;;;9.33;70.52;101322.17;105126;1273;59192;-78
2022/11/15 10:42:29;;;;;;;10.70;6.20;;;;;;;9.29;70.15;101317.84;105257;1280;60313;-79
2022/11/15 10:44:59;;;;;;;10.50;6.80;;;;;;;9.33;69.97;101318.80;105372;1272;74004;-76
2022/11/15 10:47:32;;;;;;;7.10;4.30;;;;;;;9.48;70.00;101321.06;105509;1274;71842;-80
2022/11/15 10:50:31;;;;;;;11.40;7.00;;;;;;;9.47;69.65;101321.12;105145;1279;60506;-77
2022/11/15 10:53:02;;;;;;;11.30;7.00;;;;;;;9.58;69.64;101313.90;105190;1271;71855;-77
2022/11/15 10:55:33;;;;;;;10.50;5.70;;;;;;;9.49;69.90;101314.22;105271;1273;59176;-78
2022/11/15 10:58:20;;;;;;;11.70;6.30;;;;;;;9.32;70.07;101312.45;105260;1265;60336;-77
2022/11/15 11:00:52;;;;;;;14.20;7.30;;;;;;;9.51;69.25;101307.31;105256;1282;72998;-78
2022/11/15 11:03:37;;;;;;;15.00;7.20;;;;;;;9.50;69.67;101310.73;105060;1281;70171;-80
2022/11/15 11:06:18;;;;;;;9.80;5.40;;;;;;;9.61;69.23;101297.05;104957;1271;70571;-77
2022/11/15 11:09:05;;;;;;;12.90;7.50;;;;;;;9.70;68.93;101298.58;105012;1274;72756;-77
2022/11/15 11:11:48;;;;;;;11.10;6.10;;;;;;;9.53;69.66;101291.79;105093;1273;59025;-78
2022/11/15 11:14:33;;;;;;;13.70;8.90;;;;;;;9.58;69.48;101289.36;104934;1280;59137;-80
2022/11/15 11:17:30;;;;;;;10.00;6.60;;;;;;;9.61;69.60;101285.75;105232;1274;72118;-77
2022/11/15 11:21:04;;;;;;;13.10;7.20;;;;;;;9.65;69.11;101276.80;105150;1280;71375;-77
2022/11/15 11:23:58;;;;;;;10.00;6.10;;;;;;;9.55;69.47;101271.30;105015;1269;68959;-81
2022/11/15 11:26:41;;;;;;;12.50;7.70;;;;;;;9.57;69.36;101262.98;105216;1277;65073;-77
2022/11/15 11:29:44;;;;;;;14.10;7.30;;;;;;;9.56;69.50;101262.52;105024;1276;59163;-78
2022/11/15 11:32:49;;;;;;;14.00;7.60;;;;;;;9.76;69.35;101258.23;104954;1279;59149;-79
2022/11/15 11:35:27;;;;;;;11.40;6.50;;;;;;;9.72;69.48;101256.16;105074;1269;73629;-79
2022/11/15 11:38:24;;;;;;;11.10;5.10;;;;;;;9.81;69.14;101253.40;105095;1269;61412;-77
2022/11/15 11:41:18;;;;;;;10.40;6.20;;;;;;;9.70;69.12;101247.60;105190;1274;60679;-80
2022/11/15 11:45:06;;;;;;;10.00;6.00;;;;;;;9.62;69.24;101244.80;105139;1268;63541;-81
2022/11/15 11:47:50;;;;;;;12.80;6.70;;;;;;;9.73;68.64;101237.52;104971;1275;59559;-79
2022/11/15 11:50:28;;;;;;;15.80;6.90;;;;;;;9.69;69.09;101233.73;104954;1272;61115;-81
2022/11/15 11:53:37;;;;;;;10.30;6.30;;;;;;;9.72;69.39;101227.13;105055;1273;72852;-78
2022/11/15 11:56:44;;;;;;;14.10;6.20;;;;;;;9.74;69.68;101222.33;105151;1279;60515;-79
2022/11/15 12:00:16;;;;;;;12.00;6.40;;;;;;;9.80;69.16;101215.88;105050;1273;60062;-80
2022/11/15 12:03:32;;;;;;;10.60;6.30;;;;;;;9.81;68.96;101208.70;105074;1281;74233;-79
2022/11/15 12:06:40;;;;;;;11.30;6.50;;;;;;;9.94;68.96;101199.17;105285;1279;60589;-78
2022/11/15 12:09:53;;;;;;;9.10;6.10;;;;;;;9.96;68.45;101196.08;105470;1273;61724;-77
2022/11/15 12:13:01;;;;;;;13.30;6.50;;;;;;;10.07;68.43;101195.97;105176;1271;63005;-79
2022/11/15 12:15:41;;;;;;;13.40;6.80;;;;;;;10.16;68.15;101188.56;105054;1282;62245;-79
2022/11/15 12:18:16;;;;;;;11.40;5.60;;;;;;;10.17;68.08;101184.19;105244;1271;59964;-80
2022/11/15 12:21:17;;;;;;;13.80;6.80;;;;;;;10.33;67.64;101180.94;104883;1280;73106;-79
2022/11/15 12:24:03;;;;;;;13.40;7.10;;;;;;;10.19;68.17;101174.97;105121;1270;62831;-78
2022/11/15 12:26:48;;;;;;;14.70;7.30;;;;;;;10.25;68.51;101169.77;105002;1279;60390;-78
2022/11/15 12:29:44;;;;;;;15.10;7.10;;;;;;;10.31;68.25;101169.35;105601;1271;62049;-79
2022/11/15 12:32:37;;;;;;;13.40;7.80;;;;;;;10.47;67.38;101165.42;106034;1269;60982;-78
2022/11/15 12:35:41;;;;;;;13.40;7.00;;;;;;;10.55;67.45;101162.65;105352;1269;69251;-79
2022/11/15 12:38:49;;;;;;;12.60;7.00;;;;;;;10.64;66.08;101153.86;105309;1272;64683;-80
2022/11/15 12:41:20;;;;;;;12.40;6.90;;;;;;;10.17;67.56;101146.41;105277;1279;60416;-79
2022/11/15 12:43:49;;;;;;;12.90;7.40;;;;;;;10.11;67.79;101144.71;105183;1280;60732;-79
2022/11/15 12:46:30;;;;;;;13.50;7.40;;;;;;;10.16;68.07;101145.07;105187;1269;62806;-79
2022/11/15 12:49:02;;;;;;;13.80;7.30;;;;;;;10.37;67.24;101145.49;105385;1269;70013;-79
2022/11/15 12:51:48;;;;;;;15.10;6.60;;;;;;;10.36;67.30;101143.82;105346;1278;69681;-79
2022/11/15 12:54:23;;;;;;;18.90;8.30;;;;;;;10.48;67.25;101145.30;105364;1269;65207;-80
2022/11/15 12:57:07;;;;;;;17.60;8.10;;;;;;;10.52;67.03;101141.59;105459;1274;59040;-79
2022/11/15 13:00:26;;;;;;;18.00;9.40;;;;;;;10.69;65.85;101144.81;105531;1277;58344;-79
2022/11/15 13:03:23;;;;;;;23.70;9.60;;;;;;;10.52;66.41;101138.80;105532;1269;63005;-80
2022/11/15 13:05:59;;;;;;;24.50;10.10;;;;;;;10.51;66.88;101137.82;105461;1273;70406;-81